PWSweather.com
Personal Weather Stations
Station Observations
IMAZOWIE6
WarszawaPL

WarszawaPL

Lat: 52.27957, Lon: 21.05489

Elevation: 100

Station Type: WS1080

http://stacjapogody.waw.pl/

High Low Average
Temperature 88.9°F31.6°C 65.8°F18.8°C 80.2°F26.8°C
Dew Point -163.9°F-108.8°C -166.2°F-110.1°C -164.8°F-109.3°C
Winds Calm Calm Calm Calm Calm NCalm N
Wind Gusts 2.0 mph3.2 kmh -- --
Humidity - - -
Pressure 29.64 in1003.7 mb 29.28 in991.5 mb -
Precipitation 0.00 in0.0 mm - -
Hour Temp Dew Point Humidity Winds Wind Gusts Pressure Precip Precip Rate Daily Precip Total
04:05 AM 66.2°F19.0°C -166.2°F-110.1°C - Calm Calm -- 29.38 in994.9 mb 0.04 in1.0 mm 0.44 in11.2 mm 0.04 in1.0 mm
04:20 AM 65.8°F18.8°C -166.2°F-110.1°C - Calm Calm 0.6 mph1.0 kmh 29.42 in996.3 mb 0.00 in0.0 mm 0.00 in0.0 mm 0.04 in1.0 mm
04:35 AM 66.2°F19.0°C -166.2°F-110.1°C - Calm Calm 2.0 mph3.2 kmh 29.42 in996.3 mb 0.00 in0.0 mm 0.00 in0.0 mm 0.04 in1.0 mm
04:50 AM 67.1°F19.5°C -166.1°F-110.1°C - Calm Calm -- 29.42 in996.3 mb 0.00 in0.0 mm 0.00 in0.0 mm 0.04 in1.0 mm
05:05 AM 67.3°F19.6°C -166.1°F-110.1°C - Calm Calm -- 29.42 in996.3 mb 0.00 in0.0 mm 0.00 in0.0 mm 0.04 in1.0 mm
05:20 AM 67.6°F19.8°C -166.0°F-110.0°C - Calm Calm -- 29.43 in996.6 mb 0.00 in0.0 mm 0.00 in0.0 mm 0.04 in1.0 mm
05:35 AM 68.4°F20.2°C -166.0°F-110.0°C - Calm Calm -- 29.44 in997.0 mb 0.00 in0.0 mm 0.00 in0.0 mm 0.04 in1.0 mm
05:50 AM 69.3°F20.7°C -165.9°F-109.9°C - Calm Calm -- 29.46 in997.6 mb 0.00 in0.0 mm 0.00 in0.0 mm 0.04 in1.0 mm
06:05 AM 69.8°F21.0°C -165.8°F-109.9°C - Calm Calm -- 29.50 in999.0 mb 0.00 in0.0 mm 0.00 in0.0 mm 0.04 in1.0 mm
06:20 AM 70.9°F21.6°C -165.7°F-109.8°C - Calm Calm -- 29.51 in999.3 mb 0.00 in0.0 mm 0.00 in0.0 mm 0.04 in1.0 mm
06:35 AM 72.9°F22.7°C -165.5°F-109.7°C - Calm Calm -- 29.51 in999.3 mb 0.00 in0.0 mm 0.00 in0.0 mm 0.04 in1.0 mm
06:50 AM 77.4°F25.2°C -165.1°F-109.5°C - Calm Calm -- 29.51 in999.3 mb 0.00 in0.0 mm 0.00 in0.0 mm 0.04 in1.0 mm
07:05 AM 80.1°F26.7°C -164.8°F-109.3°C - Calm Calm -- 29.51 in999.3 mb 0.00 in0.0 mm 0.00 in0.0 mm 0.04 in1.0 mm
07:20 AM 81.0°F27.2°C -164.7°F-109.3°C - Calm Calm -- 29.50 in999.0 mb 0.00 in0.0 mm 0.00 in0.0 mm 0.04 in1.0 mm
07:35 AM 81.0°F27.2°C -164.7°F-109.3°C - Calm Calm -- 29.48 in998.3 mb 0.00 in0.0 mm 0.00 in0.0 mm 0.04 in1.0 mm
07:50 AM 83.1°F28.4°C -164.5°F-109.2°C - Calm Calm -- 29.47 in998.0 mb 0.00 in0.0 mm 0.00 in0.0 mm 0.04 in1.0 mm
08:05 AM 84.2°F29.0°C -164.4°F-109.1°C - Calm Calm -- 29.46 in997.6 mb 0.00 in0.0 mm 0.00 in0.0 mm 0.04 in1.0 mm
08:20 AM 84.4°F29.1°C -164.4°F-109.1°C - Calm Calm -- 29.44 in997.0 mb 0.00 in0.0 mm 0.00 in0.0 mm 0.04 in1.0 mm
08:35 AM 87.1°F30.6°C -164.1°F-108.9°C - Calm Calm -- 29.43 in996.6 mb 0.00 in0.0 mm 0.00 in0.0 mm 0.04 in1.0 mm
08:50 AM 86.2°F30.1°C -164.2°F-109.0°C - Calm Calm 0.6 mph1.0 kmh 29.40 in995.6 mb 0.00 in0.0 mm 0.00 in0.0 mm 0.04 in1.0 mm
09:05 AM 87.4°F30.8°C -164.1°F-108.9°C - Calm Calm -- 29.39 in995.3 mb 0.00 in0.0 mm 0.00 in0.0 mm 0.04 in1.0 mm
09:20 AM 87.3°F30.7°C -164.1°F-108.9°C - Calm Calm -- 29.37 in994.6 mb 0.00 in0.0 mm 0.00 in0.0 mm 0.04 in1.0 mm
09:35 AM 87.4°F30.8°C -164.1°F-108.9°C - Calm Calm -- 29.35 in993.9 mb 0.00 in0.0 mm 0.00 in0.0 mm 0.04 in1.0 mm
09:50 AM 88.5°F31.4°C -163.9°F-108.8°C - Calm Calm -- 29.34 in993.6 mb 0.00 in0.0 mm 0.00 in0.0 mm 0.04 in1.0 mm
10:05 AM 87.3°F30.7°C -164.1°F-108.9°C - Calm Calm 0.6 mph1.0 kmh 29.34 in993.6 mb 0.00 in0.0 mm 0.00 in0.0 mm 0.04 in1.0 mm
10:20 AM 87.4°F30.8°C -164.1°F-108.9°C - Calm Calm -- 29.33 in993.2 mb 0.00 in0.0 mm 0.00 in0.0 mm 0.04 in1.0 mm
10:35 AM 87.8°F31.0°C -164.0°F-108.9°C - Calm Calm -- 29.32 in992.9 mb 0.00 in0.0 mm 0.00 in0.0 mm 0.04 in1.0 mm
10:50 AM 88.9°F31.6°C -163.9°F-108.8°C - Calm Calm 0.6 mph1.0 kmh 29.31 in992.6 mb 0.00 in0.0 mm 0.00 in0.0 mm 0.04 in1.0 mm
11:05 AM 85.3°F29.6°C -164.3°F-109.1°C - Calm Calm -- 29.30 in992.2 mb 0.00 in0.0 mm 0.00 in0.0 mm 0.04 in1.0 mm
11:20 AM 85.3°F29.6°C -164.3°F-109.1°C - Calm Calm 0.6 mph1.0 kmh 29.30 in992.2 mb 0.00 in0.0 mm 0.00 in0.0 mm 0.04 in1.0 mm
11:35 AM 84.7°F29.3°C -164.3°F-109.1°C - Calm Calm -- 29.29 in991.9 mb 0.00 in0.0 mm 0.00 in0.0 mm 0.04 in1.0 mm
11:50 AM 86.0°F30.0°C -164.2°F-109.0°C - Calm Calm -- 29.29 in991.9 mb 0.00 in0.0 mm 0.00 in0.0 mm 0.04 in1.0 mm
12:05 PM 84.7°F29.3°C -164.3°F-109.1°C - Calm Calm -- 29.28 in991.5 mb 0.00 in0.0 mm 0.00 in0.0 mm 0.04 in1.0 mm
12:20 PM 85.5°F29.7°C -164.3°F-109.1°C - Calm Calm -- 29.28 in991.5 mb 0.00 in0.0 mm 0.00 in0.0 mm 0.04 in1.0 mm
12:35 PM 84.9°F29.4°C -164.3°F-109.1°C - Calm Calm -- 29.28 in991.5 mb 0.00 in0.0 mm 0.00 in0.0 mm 0.04 in1.0 mm
12:50 PM 84.4°F29.1°C -164.4°F-109.1°C - Calm Calm -- 29.28 in991.5 mb 0.00 in0.0 mm 0.00 in0.0 mm 0.04 in1.0 mm
01:05 PM 84.0°F28.9°C -164.4°F-109.1°C - Calm Calm -- 29.28 in991.5 mb 0.00 in0.0 mm 0.00 in0.0 mm 0.04 in1.0 mm
01:20 PM 83.8°F28.8°C -164.4°F-109.1°C - Calm Calm 0.6 mph1.0 kmh 29.28 in991.5 mb 0.00 in0.0 mm 0.00 in0.0 mm 0.04 in1.0 mm
01:35 PM 84.6°F29.2°C -164.3°F-109.1°C - Calm Calm -- 29.29 in991.9 mb 0.00 in0.0 mm 0.00 in0.0 mm 0.04 in1.0 mm
01:50 PM 84.4°F29.1°C -164.4°F-109.1°C - Calm Calm -- 29.28 in991.5 mb 0.00 in0.0 mm 0.00 in0.0 mm 0.04 in1.0 mm
02:05 PM 83.8°F28.8°C -164.4°F-109.1°C - Calm Calm -- 29.28 in991.5 mb 0.00 in0.0 mm 0.00 in0.0 mm 0.04 in1.0 mm
02:20 PM 83.8°F28.8°C -164.4°F-109.1°C - Calm Calm -- 29.29 in991.9 mb 0.00 in0.0 mm 0.00 in0.0 mm 0.04 in1.0 mm
02:35 PM 84.4°F29.1°C -164.4°F-109.1°C - Calm Calm -- 29.29 in991.9 mb 0.00 in0.0 mm 0.00 in0.0 mm 0.04 in1.0 mm
02:50 PM 84.2°F29.0°C -164.4°F-109.1°C - Calm Calm -- 29.29 in991.9 mb 0.00 in0.0 mm 0.00 in0.0 mm 0.04 in1.0 mm
03:05 PM 84.0°F28.9°C -164.4°F-109.1°C - Calm Calm -- 29.29 in991.9 mb 0.00 in0.0 mm 0.00 in0.0 mm 0.04 in1.0 mm
03:20 PM 83.7°F28.7°C -164.4°F-109.1°C - Calm Calm 0.6 mph1.0 kmh 29.30 in992.2 mb 0.00 in0.0 mm 0.00 in0.0 mm 0.04 in1.0 mm
03:35 PM 83.7°F28.7°C -164.4°F-109.1°C - Calm Calm -- 29.29 in991.9 mb 0.00 in0.0 mm 0.00 in0.0 mm 0.04 in1.0 mm
03:50 PM 83.7°F28.7°C -164.4°F-109.1°C - Calm Calm -- 29.29 in991.9 mb 0.00 in0.0 mm 0.00 in0.0 mm 0.04 in1.0 mm
04:05 PM 83.5°F28.6°C -164.5°F-109.2°C - Calm Calm -- 29.29 in991.9 mb 0.00 in0.0 mm 0.00 in0.0 mm 0.04 in1.0 mm
04:20 PM 83.7°F28.7°C -164.4°F-109.1°C - Calm Calm -- 29.30 in992.2 mb 0.00 in0.0 mm 0.00 in0.0 mm 0.04 in1.0 mm
04:35 PM 83.8°F28.8°C -164.4°F-109.1°C - Calm Calm -- 29.31 in992.6 mb 0.00 in0.0 mm 0.00 in0.0 mm 0.04 in1.0 mm
04:50 PM 83.5°F28.6°C -164.5°F-109.2°C - Calm Calm -- 29.31 in992.6 mb 0.00 in0.0 mm 0.00 in0.0 mm 0.04 in1.0 mm
05:05 PM 83.1°F28.4°C -164.5°F-109.2°C - Calm Calm -- 29.32 in992.9 mb 0.00 in0.0 mm 0.00 in0.0 mm 0.04 in1.0 mm
05:20 PM 83.1°F28.4°C -164.5°F-109.2°C - Calm Calm -- 29.33 in993.2 mb 0.00 in0.0 mm 0.00 in0.0 mm 0.04 in1.0 mm
05:35 PM 83.3°F28.5°C -164.5°F-109.2°C - Calm Calm -- 29.33 in993.2 mb 0.00 in0.0 mm 0.00 in0.0 mm 0.04 in1.0 mm
05:50 PM 82.6°F28.1°C -164.5°F-109.2°C - Calm Calm -- 29.34 in993.6 mb 0.00 in0.0 mm 0.00 in0.0 mm 0.04 in1.0 mm
06:05 PM 82.4°F28.0°C -164.6°F-109.2°C - Calm Calm -- 29.36 in994.2 mb 0.00 in0.0 mm 0.00 in0.0 mm 0.04 in1.0 mm
06:20 PM 81.9°F27.7°C -164.6°F-109.2°C - Calm Calm -- 29.38 in994.9 mb 0.00 in0.0 mm 0.00 in0.0 mm 0.04 in1.0 mm
06:35 PM 81.9°F27.7°C -164.6°F-109.2°C - Calm Calm -- 29.39 in995.3 mb 0.00 in0.0 mm 0.00 in0.0 mm 0.04 in1.0 mm
06:50 PM 81.5°F27.5°C -164.7°F-109.3°C - Calm Calm -- 29.39 in995.3 mb 0.00 in0.0 mm 0.00 in0.0 mm 0.04 in1.0 mm
07:05 PM 81.3°F27.4°C -164.7°F-109.3°C - Calm Calm -- 29.41 in995.9 mb 0.00 in0.0 mm 0.00 in0.0 mm 0.04 in1.0 mm
07:20 PM 80.6°F27.0°C -164.7°F-109.3°C - Calm Calm -- 29.42 in996.3 mb 0.00 in0.0 mm 0.00 in0.0 mm 0.04 in1.0 mm
07:35 PM 80.2°F26.8°C -164.8°F-109.3°C - Calm Calm -- 29.43 in996.6 mb 0.00 in0.0 mm 0.00 in0.0 mm 0.04 in1.0 mm
07:50 PM 79.3°F26.3°C -164.9°F-109.4°C - Calm Calm -- 29.44 in997.0 mb 0.00 in0.0 mm 0.00 in0.0 mm 0.04 in1.0 mm
08:05 PM 78.8°F26.0°C -164.9°F-109.4°C - Calm Calm -- 29.46 in997.6 mb 0.00 in0.0 mm 0.00 in0.0 mm 0.04 in1.0 mm
08:20 PM 78.8°F26.0°C -164.9°F-109.4°C - Calm Calm -- 29.47 in998.0 mb 0.00 in0.0 mm 0.00 in0.0 mm 0.04 in1.0 mm
08:35 PM 78.3°F25.7°C -165.0°F-109.4°C - Calm Calm -- 29.47 in998.0 mb 0.00 in0.0 mm 0.00 in0.0 mm 0.04 in1.0 mm
08:50 PM 77.9°F25.5°C -165.0°F-109.4°C - Calm Calm -- 29.48 in998.3 mb 0.00 in0.0 mm 0.00 in0.0 mm 0.04 in1.0 mm
09:05 PM 77.4°F25.2°C -165.1°F-109.5°C - Calm Calm -- 29.49 in998.6 mb 0.00 in0.0 mm 0.00 in0.0 mm 0.04 in1.0 mm
09:20 PM 76.8°F24.9°C -165.1°F-109.5°C - Calm Calm -- 29.50 in999.0 mb 0.00 in0.0 mm 0.00 in0.0 mm 0.04 in1.0 mm
09:35 PM 76.6°F24.8°C -165.1°F-109.5°C - Calm Calm -- 29.52 in999.7 mb 0.00 in0.0 mm 0.00 in0.0 mm 0.04 in1.0 mm
09:50 PM 75.9°F24.4°C -165.2°F-109.6°C - Calm Calm -- 29.54 in1000.3 mb 0.00 in0.0 mm 0.00 in0.0 mm 0.04 in1.0 mm
10:05 PM 75.6°F24.2°C -165.2°F-109.6°C - Calm Calm -- 29.56 in1001.0 mb 0.00 in0.0 mm 0.00 in0.0 mm 0.04 in1.0 mm
10:20 PM 75.2°F24.0°C -165.3°F-109.6°C - Calm Calm -- 29.57 in1001.4 mb 0.00 in0.0 mm 0.00 in0.0 mm 0.04 in1.0 mm
10:35 PM 74.7°F23.7°C -165.3°F-109.6°C - Calm Calm -- 29.58 in1001.7 mb 0.00 in0.0 mm 0.00 in0.0 mm 0.04 in1.0 mm
10:50 PM 74.3°F23.5°C -165.4°F-109.7°C - Calm Calm -- 29.59 in1002.0 mb 0.00 in0.0 mm 0.00 in0.0 mm 0.04 in1.0 mm
11:05 PM 73.9°F23.3°C -165.4°F-109.7°C - Calm Calm -- 29.60 in1002.4 mb 0.00 in0.0 mm 0.00 in0.0 mm 0.04 in1.0 mm
11:20 PM 73.6°F23.1°C -165.4°F-109.7°C - Calm Calm -- 29.61 in1002.7 mb 0.00 in0.0 mm 0.00 in0.0 mm 0.04 in1.0 mm
11:35 PM 73.2°F22.9°C -165.5°F-109.7°C - Calm Calm -- 29.62 in1003.0 mb 0.00 in0.0 mm 0.00 in0.0 mm 0.04 in1.0 mm
11:50 PM 72.9°F22.7°C -165.5°F-109.7°C - Calm Calm -- 29.64 in1003.7 mb 0.00 in0.0 mm 0.00 in0.0 mm 0.04 in1.0 mm